createdAt,value
2023-03-03T00:00:00.000Z,79.21
2023-03-03T00:15:00.000Z,78.43
2023-03-03T00:30:00.000Z,78.08
2023-03-03T00:45:00.000Z,77.85
2023-03-03T01:00:00.000Z,77.47
2023-03-03T01:15:00.000Z,77.26
2023-03-03T01:30:00.000Z,77.32
2023-03-03T01:45:00.000Z,77.31
2023-03-03T02:00:00.000Z,77.24
2023-03-03T02:15:00.000Z,76.91
2023-03-03T02:30:00.000Z,76.64
2023-03-03T02:45:00.000Z,76.97
2023-03-03T03:00:00.000Z,77.08
2023-03-03T03:15:00.000Z,77.2
2023-03-03T03:30:00.000Z,77.3
2023-03-03T03:45:00.000Z,77.2
2023-03-03T04:00:00.000Z,77.27
2023-03-03T04:15:00.000Z,77.42
2023-03-03T04:30:00.000Z,77.34
2023-03-03T04:45:00.000Z,76.62
2023-03-03T05:00:00.000Z,76.83
2023-03-03T05:15:00.000Z,76.33
2023-03-03T05:30:00.000Z,76.33
2023-03-03T05:45:00.000Z,75.45
2023-03-03T06:00:00.000Z,74.27
2023-03-03T06:15:00.000Z,73.44
2023-03-03T06:30:00.000Z,74.24
2023-03-03T06:45:00.000Z,74.97
2023-03-03T07:00:00.000Z,74.84
2023-03-03T07:15:00.000Z,74.96
2023-03-03T07:30:00.000Z,74.92
2023-03-03T07:45:00.000Z,75.27
2023-03-03T08:00:00.000Z,74.03
2023-03-03T08:15:00.000Z,73.44
2023-03-03T08:30:00.000Z,72.3
2023-03-03T08:45:00.000Z,71.96
2023-03-03T09:00:00.000Z,72.12
2023-03-03T09:15:00.000Z,72.11
2023-03-03T09:30:00.000Z,71.88
2023-03-03T09:45:00.000Z,71.05
2023-03-03T10:00:00.000Z,70.34
2023-03-03T10:15:00.000Z,70.88
2023-03-03T10:30:00.000Z,71.64
2023-03-03T10:45:00.000Z,71.64
2023-03-03T11:00:00.000Z,71.12
2023-03-03T11:15:00.000Z,71.15
2023-03-03T11:30:00.000Z,70.59
2023-03-03T11:45:00.000Z,69.09
2023-03-03T12:00:00.000Z,67.42
2023-03-03T12:15:00.000Z,66.29
2023-03-03T12:30:00.000Z,66.89
2023-03-03T12:45:00.000Z,65.74
2023-03-03T13:00:00.000Z,64.91
2023-03-03T13:15:00.000Z,64.35
2023-03-03T13:30:00.000Z,63.39
2023-03-03T13:45:00.000Z,63.14
2023-03-03T14:00:00.000Z,61.89
2023-03-03T14:15:00.000Z,61.83
2023-03-03T14:30:00.000Z,62.56
2023-03-03T14:45:00.000Z,63.4
2023-03-03T15:00:00.000Z,64.3
2023-03-03T15:15:00.000Z,65.49
2023-03-03T15:30:00.000Z,65.88
2023-03-03T15:45:00.000Z,66.93
2023-03-03T16:00:00.000Z,67.45
2023-03-03T16:15:00.000Z,67.8
2023-03-03T16:30:00.000Z,68.36
2023-03-03T16:45:00.000Z,69.45
2023-03-03T17:15:00.000Z,72.04
2023-03-03T17:30:00.000Z,73.4
2023-03-03T17:45:00.000Z,74.34
2023-03-03T18:00:00.000Z,75.36
2023-03-03T18:15:00.000Z,76.23
2023-03-03T18:30:00.000Z,77.01
2023-03-03T18:45:00.000Z,78.61
2023-03-03T19:00:00.000Z,79.54
2023-03-03T19:15:00.000Z,79.39
2023-03-03T19:30:00.000Z,79.14
2023-03-03T19:45:00.000Z,79.12
2023-03-03T20:00:00.000Z,79.12
2023-03-03T20:15:00.000Z,79.49
2023-03-03T20:30:00.000Z,80.03
2023-03-03T20:45:00.000Z,80.64
2023-03-03T21:00:00.000Z,81.12
2023-03-03T21:15:00.000Z,81.89
2023-03-03T21:30:00.000Z,82.27
2023-03-03T21:45:00.000Z,82.54
2023-03-03T22:00:00.000Z,82.6
2023-03-03T22:15:00.000Z,82.61
2023-03-03T22:30:00.000Z,82.51
2023-03-03T22:45:00.000Z,82.47
2023-03-03T23:00:00.000Z,82.49
2023-03-03T23:15:00.000Z,82.45
2023-03-03T23:30:00.000Z,82.59
2023-03-03T23:45:00.000Z,82.55
